Weather at George Bush Intercontinental Houston Airport

Public forecast

Using degrees Fahrenheit for public forecast. Weather courtesy of forecast.io.

Current aviation weather report (METAR) for George Bush Intercontinental Houston Airport

Retrieved 2020/10/30 23:53 UTC (45 minutes ago):

KIAH 302353Z 00000KT 10SM FEW250 14/08 A3019 RMK AO2 SLP224 T01440078 10217 20139 55004

Aviation forecast (TAF) for George Bush Intercontinental Houston Airport

Retrieved 2020-10-31 00:22 UTC (16 minutes ago):

TAF KIAH 302320Z 3100/0106 VRB03KT P6SM SKC FM311600 16005KT P6SM SKC